Time;durP1;ratioP1;P1;durP2;ratioP2;P2;SDS_P1;SDS_P2;PMS_P1;PMS_P2;Temp;Humidity;BMP_temperature;BMP_pressure;BME280_temperature;BME280_humidity;BME280_pressure;Samples;Min_cycle;Max_cycle;Signal;HPM_P1;HPM_P2
2022/10/22 00:00:42;;;;;;;;;;;22.80;56.20;;;;;;1556338;74;731;-57
2022/10/22 00:02:44;;;;;;;;;;;22.90;56.30;;;;;;1567865;74;775;-57
2022/10/22 00:04:47;;;;;;;;;;;22.90;56.30;;;;;;1562387;74;816;-57
2022/10/22 00:06:49;;;;;;;;;;;22.90;56.30;;;;;;1556424;74;1586;-56
2022/10/22 00:08:50;;;;;;;;;;;22.80;56.20;;;;;;1558783;74;745;-56
2022/10/22 00:10:52;;;;;;;;;;;22.90;56.30;;;;;;1561937;74;760;-56
2022/10/22 00:12:54;;;;;;;;;;;22.90;56.30;;;;;;1547115;74;695;-54
2022/10/22 00:14:56;;;;;;;;;;;22.90;56.30;;;;;;1568411;74;717;-52
2022/10/22 00:16:59;;;;;;;;;;;22.90;56.30;;;;;;1565222;74;1946;-57
2022/10/22 00:19:01;;;;;;;;;;;22.90;56.20;;;;;;1571325;74;783;-56
2022/10/22 00:21:03;;;;;;;;;;;22.90;56.20;;;;;;1548500;74;1671;-57
2022/10/22 00:23:05;;;;;;;;;;;22.90;56.20;;;;;;1562991;74;821;-54
2022/10/22 00:25:07;;;;;;;;;;;22.80;56.10;;;;;;1563081;74;722;-56
2022/10/22 00:27:10;;;;;;;;;;;22.90;56.20;;;;;;1548695;74;1093;-53
2022/10/22 00:29:11;;;;;;;;;;;22.90;56.20;;;;;;1553304;74;713;-54
2022/10/22 00:31:14;;;;;;;;;;;22.90;56.20;;;;;;1550595;74;736;-57
2022/10/22 00:33:16;;;;;;;;;;;22.90;56.30;;;;;;1571251;74;1513;-55
2022/10/22 00:35:18;;;;;;;;;;;22.90;56.20;;;;;;1543707;74;1149;-53
2022/10/22 00:37:20;;;;;;;;;;;22.90;56.20;;;;;;1557770;74;1934;-56
2022/10/22 00:39:22;;;;;;;;;;;22.90;56.20;;;;;;1550958;74;712;-57
2022/10/22 00:41:24;;;;;;;;;;;22.80;56.10;;;;;;1563833;74;802;-56
2022/10/22 00:43:26;;;;;;;;;;;22.90;56.20;;;;;;1564087;74;941;-56
2022/10/22 00:45:28;;;;;;;;;;;22.80;56.00;;;;;;1559976;74;1151;-57
2022/10/22 00:47:31;;;;;;;;;;;22.90;56.20;;;;;;1555451;74;1527;-56
2022/10/22 00:49:33;;;;;;;;;;;22.80;56.10;;;;;;1550640;74;691;-57
2022/10/22 00:51:35;;;;;;;;;;;22.90;56.30;;;;;;1559529;74;715;-56
2022/10/22 00:53:44;;;;;;;;;;;22.80;56.10;;;;;;1551062;74;792;-56
2022/10/22 00:55:46;;;;;;;;;;;22.90;56.20;;;;;;1569581;74;1140;-53
2022/10/22 00:57:48;;;;;;;;;;;22.80;56.20;;;;;;1566170;74;1932;-55
2022/10/22 00:59:50;;;;;;;;;;;22.80;56.10;;;;;;1557475;74;1469;-53
2022/10/22 01:01:52;;;;;;;;;;;22.80;56.10;;;;;;1558886;74;1521;-56
2022/10/22 01:03:54;;;;;;;;;;;22.80;56.00;;;;;;1562369;74;738;-55
2022/10/22 01:05:57;;;;;;;;;;;22.90;56.20;;;;;;1564151;74;1190;-56
2022/10/22 01:07:58;;;;;;;;;;;22.90;56.20;;;;;;1561441;75;736;-53
2022/10/22 01:10:05;;;;;;;;;;;22.90;56.30;;;;;;1565526;75;811;-56
2022/10/22 01:12:17;;;;;;;;;;;22.80;56.20;;;;;;1544437;74;1892;-56
2022/10/22 01:14:24;;;;;;;;;;;22.80;56.10;;;;;;1560470;74;931;-56
2022/10/22 01:16:37;;;;;;;;;;;22.90;56.30;;;;;;1548930;74;1950;-56
2022/10/22 01:18:40;;;;;;;;;;;22.80;56.10;;;;;;1571430;74;824;-57
2022/10/22 01:20:53;;;;;;;;;;;22.90;56.30;;;;;;1561466;74;1916;-56
2022/10/22 01:23:02;;;;;;;;;;;22.70;56.10;;;;;;1559140;74;1849;-57
2022/10/22 01:25:08;;;;;;;;;;;22.80;56.20;;;;;;1547472;74;764;-56
2022/10/22 01:27:21;;;;;;;;;;;22.70;56.20;;;;;;1561899;74;1066;-53
2022/10/22 01:29:42;;;;;;;;;;;22.80;56.20;;;;;;1573708;74;1950;-56
2022/10/22 01:31:45;;;;;;;;;;;22.80;56.20;;;;;;1546214;74;1783;-57
2022/10/22 01:33:47;;;;;;;;;;;22.80;56.20;;;;;;1561121;74;720;-56
2022/10/22 01:35:49;;;;;;;;;;;22.80;56.20;;;;;;1556710;74;1152;-56
2022/10/22 01:37:53;;;;;;;;;;;22.80;56.30;;;;;;1569453;74;1932;-53
2022/10/22 01:39:55;;;;;;;;;;;22.80;56.30;;;;;;1557038;74;1915;-57
2022/10/22 01:41:57;;;;;;;;;;;22.80;56.20;;;;;;1570459;74;721;-55
2022/10/22 01:43:59;;;;;;;;;;;22.80;56.30;;;;;;1557792;76;1522;-57
2022/10/22 01:46:02;;;;;;;;;;;22.80;56.20;;;;;;1559583;74;1136;-57
2022/10/22 01:48:11;;;;;;;;;;;22.80;56.20;;;;;;1555646;74;700;-57
2022/10/22 01:50:30;;;;;;;;;;;22.80;56.20;;;;;;1534307;74;1858;-56
2022/10/22 01:52:40;;;;;;;;;;;22.70;56.20;;;;;;1539848;74;1646;-57
2022/10/22 01:54:53;;;;;;;;;;;22.80;56.10;;;;;;1547798;74;1769;-56
2022/10/22 01:57:00;;;;;;;;;;;22.80;56.10;;;;;;1571191;74;1943;-56
2022/10/22 01:59:03;;;;;;;;;;;22.80;56.20;;;;;;1553882;74;1859;-55
2022/10/22 02:01:18;;;;;;;;;;;22.70;56.20;;;;;;1566129;74;1790;-54
2022/10/22 02:03:22;;;;;;;;;;;22.80;56.20;;;;;;1568182;74;775;-56
2022/10/22 02:05:28;;;;;;;;;;;22.80;56.20;;;;;;1557681;74;1894;-53
2022/10/22 02:07:32;;;;;;;;;;;22.80;56.20;;;;;;1568382;74;776;-57
2022/10/22 02:09:34;;;;;;;;;;;22.80;56.10;;;;;;1566122;74;705;-52
2022/10/22 02:11:35;;;;;;;;;;;22.70;56.10;;;;;;1569039;75;805;-56
2022/10/22 02:13:39;;;;;;;;;;;22.80;56.20;;;;;;1567525;74;1560;-57
2022/10/22 02:15:41;;;;;;;;;;;22.80;56.10;;;;;;1560208;74;1260;-56
2022/10/22 02:17:43;;;;;;;;;;;22.80;56.00;;;;;;1555705;74;1932;-55
2022/10/22 02:19:46;;;;;;;;;;;22.80;56.00;;;;;;1568098;74;771;-54
2022/10/22 02:21:48;;;;;;;;;;;22.90;56.10;;;;;;1556734;74;1379;-54
2022/10/22 02:23:50;;;;;;;;;;;22.90;56.10;;;;;;1539248;76;643;-56
2022/10/22 02:25:53;;;;;;;;;;;22.80;56.00;;;;;;1562988;74;1586;-52
2022/10/22 02:28:00;;;;;;;;;;;22.90;56.10;;;;;;1559106;74;727;-54
2022/10/22 02:30:03;;;;;;;;;;;22.70;56.00;;;;;;1562085;74;1718;-54
2022/10/22 02:32:05;;;;;;;;;;;22.70;56.00;;;;;;1562608;75;692;-55
2022/10/22 02:34:09;;;;;;;;;;;22.90;56.10;;;;;;1567231;74;790;-56
2022/10/22 02:36:10;;;;;;;;;;;22.80;55.90;;;;;;1568088;74;1137;-57
2022/10/22 02:38:12;;;;;;;;;;;22.80;56.00;;;;;;1563164;75;1944;-56
2022/10/22 02:40:14;;;;;;;;;;;22.70;56.00;;;;;;1556743;74;1490;-56
2022/10/22 02:42:17;;;;;;;;;;;22.80;56.00;;;;;;1571218;74;789;-56
2022/10/22 02:44:20;;;;;;;;;;;22.80;56.00;;;;;;1562396;74;779;-57
2022/10/22 02:46:22;;;;;;;;;;;22.70;55.90;;;;;;1564890;74;1073;-57
2022/10/22 02:48:24;;;;;;;;;;;22.70;56.00;;;;;;1566070;76;756;-57
2022/10/22 02:50:25;;;;;;;;;;;22.80;56.00;;;;;;1550289;74;747;-57
2022/10/22 02:52:27;;;;;;;;;;;22.80;56.00;;;;;;1573556;74;632;-57
2022/10/22 02:54:29;;;;;;;;;;;22.90;56.00;;;;;;1561453;74;1504;-57
2022/10/22 02:56:31;;;;;;;;;;;22.80;55.80;;;;;;1567479;74;1124;-57
2022/10/22 02:58:33;;;;;;;;;;;22.80;55.80;;;;;;1559882;74;1926;-56
2022/10/22 03:00:35;;;;;;;;;;;22.80;55.80;;;;;;1541623;74;1093;-56
2022/10/22 03:02:37;;;;;;;;;;;22.90;55.90;;;;;;1538731;74;712;-57
2022/10/22 03:04:39;;;;;;;;;;;22.80;55.80;;;;;;1558112;75;717;-56
2022/10/22 03:06:43;;;;;;;;;;;22.80;55.80;;;;;;1557885;74;1173;-56
2022/10/22 03:08:44;;;;;;;;;;;22.80;55.80;;;;;;1557921;74;1476;-56
2022/10/22 03:10:46;;;;;;;;;;;22.80;55.80;;;;;;1570946;74;753;-57
2022/10/22 03:12:48;;;;;;;;;;;22.80;55.90;;;;;;1547579;74;735;-57
2022/10/22 03:14:50;;;;;;;;;;;22.80;55.80;;;;;;1564854;74;803;-56
2022/10/22 03:16:52;;;;;;;;;;;22.80;55.80;;;;;;1549857;74;1159;-56
2022/10/22 03:18:54;;;;;;;;;;;22.80;55.80;;;;;;1558812;76;1930;-57
2022/10/22 03:21:04;;;;;;;;;;;22.70;55.80;;;;;;1556412;74;787;-56
2022/10/22 03:23:06;;;;;;;;;;;22.80;55.80;;;;;;1562302;74;1806;-54
2022/10/22 03:25:09;;;;;;;;;;;22.80;55.80;;;;;;1554389;76;683;-56
2022/10/22 03:27:11;;;;;;;;;;;22.80;55.90;;;;;;1554393;74;1079;-57
2022/10/22 03:29:13;;;;;;;;;;;22.80;55.80;;;;;;1563275;74;724;-56
2022/10/22 03:31:15;;;;;;;;;;;22.80;55.80;;;;;;1568328;74;785;-57
2022/10/22 03:33:17;;;;;;;;;;;22.90;55.90;;;;;;1555451;75;722;-56
2022/10/22 03:35:19;;;;;;;;;;;22.90;55.90;;;;;;1556254;74;1128;-55
2022/10/22 03:37:21;;;;;;;;;;;22.80;55.80;;;;;;1543751;76;1973;-55
2022/10/22 03:39:23;;;;;;;;;;;22.70;55.80;;;;;;1548762;74;918;-57
2022/10/22 03:41:24;;;;;;;;;;;22.90;55.90;;;;;;1546490;74;782;-56
2022/10/22 03:43:26;;;;;;;;;;;22.80;55.80;;;;;;1555647;74;696;-56
2022/10/22 03:45:28;;;;;;;;;;;22.80;55.70;;;;;;1564740;74;1096;-56
2022/10/22 03:47:30;;;;;;;;;;;22.80;55.80;;;;;;1566581;74;665;-56
2022/10/22 03:49:32;;;;;;;;;;;22.80;55.80;;;;;;1561251;74;774;-53
2022/10/22 03:51:34;;;;;;;;;;;22.80;55.70;;;;;;1559142;74;1578;-57
2022/10/22 03:53:36;;;;;;;;;;;22.80;55.80;;;;;;1568084;74;716;-52
2022/10/22 03:55:39;;;;;;;;;;;22.80;55.80;;;;;;1554572;74;1144;-55
2022/10/22 03:57:41;;;;;;;;;;;22.80;55.70;;;;;;1546556;74;1954;-56
2022/10/22 03:59:44;;;;;;;;;;;22.80;55.70;;;;;;1542082;74;1019;-55
2022/10/22 04:01:45;;;;;;;;;;;22.70;55.80;;;;;;1566479;74;684;-56
2022/10/22 04:03:47;;;;;;;;;;;22.80;55.70;;;;;;1570830;74;649;-56
2022/10/22 04:05:49;;;;;;;;;;;22.80;55.80;;;;;;1569306;74;1596;-53
2022/10/22 04:07:51;;;;;;;;;;;22.80;55.70;;;;;;1566631;75;800;-57
2022/10/22 04:09:53;;;;;;;;;;;22.80;55.80;;;;;;1572215;75;747;-57
2022/10/22 04:11:55;;;;;;;;;;;22.80;55.80;;;;;;1571443;74;789;-56
2022/10/22 04:13:57;;;;;;;;;;;22.80;55.70;;;;;;1560364;74;746;-56
2022/10/22 04:16:09;;;;;;;;;;;22.70;55.70;;;;;;1563078;75;1144;-56
2022/10/22 04:18:11;;;;;;;;;;;22.80;55.80;;;;;;1566042;75;1935;-56
2022/10/22 04:20:13;;;;;;;;;;;22.80;55.70;;;;;;1566905;75;1922;-55
2022/10/22 04:22:14;;;;;;;;;;;22.80;55.80;;;;;;1571079;74;804;-53
2022/10/22 04:24:16;;;;;;;;;;;22.70;55.80;;;;;;1571192;75;782;-56
2022/10/22 04:26:18;;;;;;;;;;;22.80;55.80;;;;;;1561530;75;1137;-56
2022/10/22 04:28:20;;;;;;;;;;;22.80;55.70;;;;;;1566930;75;819;-57
2022/10/22 04:30:22;;;;;;;;;;;22.80;55.70;;;;;;1566804;74;782;-56
2022/10/22 04:32:24;;;;;;;;;;;22.70;55.70;;;;;;1569633;74;1352;-56
2022/10/22 04:34:27;;;;;;;;;;;22.80;55.80;;;;;;1566024;75;734;-57
2022/10/22 04:36:29;;;;;;;;;;;22.80;55.80;;;;;;1564112;75;1069;-57
2022/10/22 04:38:31;;;;;;;;;;;22.80;55.80;;;;;;1562909;74;1951;-56
2022/10/22 04:40:33;;;;;;;;;;;22.80;55.70;;;;;;1571463;75;784;-54
2022/10/22 04:42:35;;;;;;;;;;;22.80;55.80;;;;;;1569221;74;788;-56
2022/10/22 04:44:37;;;;;;;;;;;22.80;55.70;;;;;;1564961;74;802;-56
2022/10/22 04:46:38;;;;;;;;;;;22.70;55.80;;;;;;1565897;74;1507;-53
2022/10/22 04:48:41;;;;;;;;;;;22.80;55.80;;;;;;1569138;75;793;-57
2022/10/22 04:50:43;;;;;;;;;;;22.70;55.80;;;;;;1573510;74;731;-56
2022/10/22 04:52:44;;;;;;;;;;;22.70;55.70;;;;;;1563770;74;784;-57
2022/10/22 04:54:46;;;;;;;;;;;22.80;55.70;;;;;;1566758;75;717;-57
2022/10/22 04:56:48;;;;;;;;;;;22.70;55.70;;;;;;1560829;75;1127;-56
2022/10/22 04:58:51;;;;;;;;;;;22.70;55.70;;;;;;1582186;74;1933;-54
2022/10/22 05:00:53;;;;;;;;;;;22.80;55.70;;;;;;1568878;74;1560;-56
2022/10/22 05:02:55;;;;;;;;;;;22.80;55.70;;;;;;1551836;74;714;-56
2022/10/22 05:04:56;;;;;;;;;;;22.80;55.70;;;;;;1561717;74;749;-53
2022/10/22 05:06:58;;;;;;;;;;;22.70;55.70;;;;;;1565653;74;1172;-54
2022/10/22 05:09:01;;;;;;;;;;;22.70;55.70;;;;;;1562892;74;776;-57
2022/10/22 05:11:19;;;;;;;;;;;22.80;55.60;;;;;;1560021;74;724;-56
2022/10/22 05:13:21;;;;;;;;;;;22.80;55.60;;;;;;1566677;74;870;-55
2022/10/22 05:15:23;;;;;;;;;;;22.70;55.70;;;;;;1566734;74;1527;-53
2022/10/22 05:17:25;;;;;;;;;;;22.80;55.70;;;;;;1559617;75;736;-56
2022/10/22 05:19:28;;;;;;;;;;;22.70;55.70;;;;;;1560543;74;1946;-56
2022/10/22 05:21:30;;;;;;;;;;;22.80;55.70;;;;;;1566704;75;691;-57
2022/10/22 05:23:32;;;;;;;;;;;22.80;55.70;;;;;;1566915;74;725;-54
2022/10/22 05:25:38;;;;;;;;;;;22.80;55.70;;;;;;1569525;74;1062;-57
2022/10/22 05:27:40;;;;;;;;;;;22.80;55.70;;;;;;1557213;74;1416;-53
2022/10/22 05:29:42;;;;;;;;;;;22.80;55.60;;;;;;1566560;74;1610;-57
2022/10/22 05:31:44;;;;;;;;;;;22.80;55.60;;;;;;1554743;75;706;-56
2022/10/22 05:33:45;;;;;;;;;;;22.80;55.70;;;;;;1561598;74;692;-56
2022/10/22 05:35:49;;;;;;;;;;;22.80;55.60;;;;;;1559554;74;1141;-56
2022/10/22 05:37:51;;;;;;;;;;;22.80;55.60;;;;;;1554185;74;1938;-54
2022/10/22 05:39:53;;;;;;;;;;;22.80;55.60;;;;;;1550026;74;570;-57
2022/10/22 05:41:55;;;;;;;;;;;22.80;55.60;;;;;;1556039;74;727;-56
2022/10/22 05:43:57;;;;;;;;;;;22.80;55.60;;;;;;1563372;74;1507;-55
2022/10/22 05:46:02;;;;;;;;;;;22.80;55.50;;;;;;1565962;74;1148;-56
2022/10/22 05:48:04;;;;;;;;;;;22.80;55.60;;;;;;1561538;75;674;-56
2022/10/22 05:50:07;;;;;;;;;;;22.80;55.50;;;;;;1553330;74;691;-56
2022/10/22 05:52:09;;;;;;;;;;;22.70;55.50;;;;;;1563341;74;747;-56
2022/10/22 05:54:11;;;;;;;;;;;22.80;55.50;;;;;;1565089;74;632;-56
2022/10/22 05:56:14;;;;;;;;;;;22.90;55.60;;;;;;1560061;74;1139;-56
2022/10/22 05:58:16;;;;;;;;;;;22.80;55.40;;;;;;1566798;74;1942;-56
2022/10/22 06:00:18;;;;;;;;;;;22.80;55.50;;;;;;1571691;74;761;-57
2022/10/22 06:02:20;;;;;;;;;;;22.80;55.40;;;;;;1562372;74;1079;-56
2022/10/22 06:04:22;;;;;;;;;;;22.80;55.50;;;;;;1558063;74;781;-56
2022/10/22 06:06:33;;;;;;;;;;;22.80;55.50;;;;;;1548785;74;1163;-56
2022/10/22 06:08:35;;;;;;;;;;;22.80;55.50;;;;;;1557969;74;784;-57
2022/10/22 06:10:37;;;;;;;;;;;22.80;55.50;;;;;;1543478;74;800;-57
2022/10/22 06:12:39;;;;;;;;;;;22.80;55.50;;;;;;1568034;74;1493;-57
2022/10/22 06:14:41;;;;;;;;;;;22.90;55.60;;;;;;1559255;74;752;-57
2022/10/22 06:16:42;;;;;;;;;;;22.70;55.60;;;;;;1465514;79;1178;-57
2022/10/22 06:18:44;;;;;;;;;;;22.80;55.50;;;;;;1515713;76;1932;-57
2022/10/22 06:20:46;;;;;;;;;;;22.80;55.50;;;;;;1524677;76;789;-57
2022/10/22 06:22:48;;;;;;;;;;;22.80;55.60;;;;;;1529674;76;749;-57
2022/10/22 06:24:50;;;;;;;;;;;22.80;55.50;;;;;;1495913;78;1322;-57
2022/10/22 06:26:52;;;;;;;;;;;22.70;55.50;;;;;;1487317;78;1137;-56
2022/10/22 06:28:55;;;;;;;;;;;22.70;55.50;;;;;;1529111;77;795;-57
2022/10/22 06:30:57;;;;;;;;;;;22.70;55.50;;;;;;1495963;78;781;-57
2022/10/22 06:32:59;;;;;;;;;;;22.70;55.50;;;;;;1493119;78;746;-57
2022/10/22 06:35:01;;;;;;;;;;;22.70;55.50;;;;;;1493883;78;754;-57
2022/10/22 06:37:03;;;;;;;;;;;22.70;55.50;;;;;;1483034;78;1120;-57
2022/10/22 06:39:05;;;;;;;;;;;22.70;55.50;;;;;;1497335;77;1928;-57
2022/10/22 06:41:07;;;;;;;;;;;22.70;55.50;;;;;;1509328;77;733;-55
2022/10/22 06:43:10;;;;;;;;;;;22.70;55.50;;;;;;1504555;77;740;-57
2022/10/22 06:45:12;;;;;;;;;;;22.70;55.50;;;;;;1506651;78;804;-56
2022/10/22 06:47:14;;;;;;;;;;;22.70;55.50;;;;;;1491074;77;1117;-57
2022/10/22 06:49:16;;;;;;;;;;;22.80;55.50;;;;;;1504007;78;712;-56
2022/10/22 06:51:18;;;;;;;;;;;22.70;55.50;;;;;;1500524;78;791;-56
2022/10/22 06:53:20;;;;;;;;;;;22.80;55.50;;;;;;1501786;78;1514;-56
2022/10/22 06:55:22;;;;;;;;;;;22.70;55.40;;;;;;1495439;77;1123;-56
2022/10/22 06:57:23;;;;;;;;;;;22.70;55.40;;;;;;1499782;77;646;-54
2022/10/22 06:59:25;;;;;;;;;;;22.80;55.50;;;;;;1499500;79;1941;-53
2022/10/22 07:01:28;;;;;;;;;;;22.80;55.50;;;;;;1489843;77;1069;-57
2022/10/22 07:03:30;;;;;;;;;;;22.70;55.50;;;;;;1503727;77;703;-56
2022/10/22 07:05:33;;;;;;;;;;;22.80;55.50;;;;;;1481843;77;1168;-53
2022/10/22 07:07:35;;;;;;;;;;;22.70;55.40;;;;;;1496467;78;1587;-56
2022/10/22 07:09:38;;;;;;;;;;;22.70;55.50;;;;;;1498220;77;719;-56
2022/10/22 07:11:41;;;;;;;;;;;22.70;55.50;;;;;;1487555;77;831;-57
2022/10/22 07:13:43;;;;;;;;;;;22.80;55.40;;;;;;1563164;74;609;-53
2022/10/22 07:15:44;;;;;;;;;;;22.70;55.50;;;;;;1552840;74;1151;-57
2022/10/22 07:17:46;;;;;;;;;;;22.70;55.50;;;;;;1542875;74;715;-57
2022/10/22 07:19:48;;;;;;;;;;;22.70;55.50;;;;;;1555216;75;1923;-56
2022/10/22 07:21:50;;;;;;;;;;;22.70;55.50;;;;;;1557272;74;1502;-56
2022/10/22 07:23:52;;;;;;;;;;;22.70;55.50;;;;;;1560370;74;652;-56
2022/10/22 07:25:54;;;;;;;;;;;22.70;55.50;;;;;;1562243;75;1155;-55
2022/10/22 07:27:56;;;;;;;;;;;22.70;55.50;;;;;;1575990;74;669;-53
2022/10/22 07:29:59;;;;;;;;;;;22.70;55.50;;;;;;1558795;74;771;-56
2022/10/22 07:32:01;;;;;;;;;;;22.80;55.50;;;;;;1561039;74;743;-56
2022/10/22 07:34:03;;;;;;;;;;;22.90;55.50;;;;;;1558055;74;746;-57
2022/10/22 07:36:06;;;;;;;;;;;22.80;55.40;;;;;;1551307;74;1545;-57
2022/10/22 07:38:08;;;;;;;;;;;22.80;55.30;;;;;;1548652;74;739;-56
2022/10/22 07:40:10;;;;;;;;;;;22.80;55.40;;;;;;1549876;74;1946;-56
2022/10/22 07:42:12;;;;;;;;;;;22.80;55.40;;;;;;1547173;74;724;-56
2022/10/22 07:44:14;;;;;;;;;;;22.80;55.40;;;;;;1563804;74;806;-56
2022/10/22 07:46:15;;;;;;;;;;;22.80;55.40;;;;;;1561137;74;1132;-55
2022/10/22 07:48:17;;;;;;;;;;;22.80;55.40;;;;;;1560580;74;709;-53
2022/10/22 07:50:19;;;;;;;;;;;22.80;55.30;;;;;;1559977;75;1515;-57
2022/10/22 07:52:21;;;;;;;;;;;22.80;55.20;;;;;;1559792;74;799;-56
2022/10/22 07:54:23;;;;;;;;;;;22.70;55.30;;;;;;1557801;75;731;-56
2022/10/22 07:56:25;;;;;;;;;;;22.80;55.30;;;;;;1561543;74;1133;-56
2022/10/22 07:58:27;;;;;;;;;;;22.70;55.30;;;;;;1570919;74;669;-56
2022/10/22 08:00:29;;;;;;;;;;;22.70;55.30;;;;;;1571240;74;1942;-56
2022/10/22 08:02:31;;;;;;;;;;;22.70;55.30;;;;;;1561146;75;1055;-53
2022/10/22 08:04:32;;;;;;;;;;;22.80;55.30;;;;;;1559093;75;1586;-57
2022/10/22 08:06:35;;;;;;;;;;;22.80;55.30;;;;;;1556551;75;1162;-56
2022/10/22 08:08:36;;;;;;;;;;;22.80;55.20;;;;;;1557322;75;709;-56
2022/10/22 08:10:38;;;;;;;;;;;22.80;55.20;;;;;;1563191;75;730;-55
2022/10/22 08:12:40;;;;;;;;;;;22.80;55.20;;;;;;1552075;75;788;-56
2022/10/22 08:14:42;;;;;;;;;;;22.80;55.20;;;;;;1555747;75;734;-56
2022/10/22 08:16:44;;;;;;;;;;;22.80;55.20;;;;;;1560158;75;1118;-56
2022/10/22 08:18:46;;;;;;;;;;;22.80;55.20;;;;;;1563416;75;1539;-53
2022/10/22 08:20:48;;;;;;;;;;;22.80;55.30;;;;;;1556208;75;761;-57
2022/10/22 08:22:50;;;;;;;;;;;22.70;55.20;;;;;;1559518;75;742;-56
2022/10/22 08:24:52;;;;;;;;;;;22.70;55.30;;;;;;1559025;75;822;-53
2022/10/22 08:26:55;;;;;;;;;;;22.70;55.20;;;;;;1559324;75;1153;-56
2022/10/22 08:28:57;;;;;;;;;;;22.70;55.30;;;;;;1557658;75;730;-55
2022/10/22 08:31:03;;;;;;;;;;;22.70;55.30;;;;;;1557348;75;765;-56
2022/10/22 08:33:02;;;;;;;;;;;22.70;55.30;;;;;;1556362;75;1814;-55
2022/10/22 08:35:04;;;;;;;;;;;22.70;55.30;;;;;;1559827;75;784;-57
2022/10/22 08:37:07;;;;;;;;;;;22.80;55.30;;;;;;1564711;75;1113;-54
2022/10/22 08:39:09;;;;;;;;;;;22.80;55.30;;;;;;1558276;75;1923;-56
2022/10/22 08:41:15;;;;;;;;;;;22.80;55.20;;;;;;1557218;75;713;-56
2022/10/22 08:43:30;;;;;;;;;;;22.80;55.20;;;;;;1558505;75;726;-56
2022/10/22 08:45:34;;;;;;;;;;;22.70;55.20;;;;;;1558407;75;1949;-55
2022/10/22 08:47:40;;;;;;;;;;;22.70;55.30;;;;;;1561384;75;1883;-56
2022/10/22 08:49:42;;;;;;;;;;;22.80;55.40;;;;;;1550956;75;769;-56
2022/10/22 08:51:44;;;;;;;;;;;22.70;55.30;;;;;;1558543;75;780;-56
2022/10/22 08:54:04;;;;;;;;;;;22.70;55.30;;;;;;1555678;75;683;-56
2022/10/22 08:56:06;;;;;;;;;;;22.70;55.20;;;;;;1548316;75;1237;-56
2022/10/22 08:58:17;;;;;;;;;;;22.80;55.30;;;;;;1560232;75;775;-56
2022/10/22 09:00:32;;;;;;;;;;;22.70;55.30;;;;;;1556112;75;2056;-56
2022/10/22 09:02:37;;;;;;;;;;;22.70;55.30;;;;;;1552354;75;2067;-56
2022/10/22 09:04:40;;;;;;;;;;;22.70;55.30;;;;;;1553517;75;708;-56
2022/10/22 09:06:46;;;;;;;;;;;22.70;55.30;;;;;;1559987;75;1191;-56
2022/10/22 09:08:48;;;;;;;;;;;22.70;55.30;;;;;;1551884;75;679;-54
2022/10/22 09:10:51;;;;;;;;;;;22.70;55.30;;;;;;1557762;75;794;-56
2022/10/22 09:12:53;;;;;;;;;;;22.80;55.30;;;;;;1557008;75;1136;-56
2022/10/22 09:14:55;;;;;;;;;;;22.70;55.20;;;;;;1554832;75;1546;-56
2022/10/22 09:16:58;;;;;;;;;;;22.70;55.20;;;;;;1557572;75;1148;-54
2022/10/22 09:19:14;;;;;;;;;;;22.80;55.20;;;;;;1559324;75;987;-56
2022/10/22 09:21:34;;;;;;;;;;;22.80;55.20;;;;;;1558039;75;1762;-56
2022/10/22 09:23:37;;;;;;;;;;;22.80;55.20;;;;;;1555866;75;765;-56
2022/10/22 09:25:39;;;;;;;;;;;22.80;55.30;;;;;;1557089;75;1160;-52
2022/10/22 09:27:41;;;;;;;;;;;22.70;55.30;;;;;;1558863;75;1524;-56
2022/10/22 09:29:43;;;;;;;;;;;22.80;55.30;;;;;;1558185;75;735;-56
2022/10/22 09:31:45;;;;;;;;;;;22.70;55.30;;;;;;1556691;75;752;-56
2022/10/22 09:33:47;;;;;;;;;;;22.70;55.30;;;;;;1558632;75;717;-56
2022/10/22 09:35:57;;;;;;;;;;;22.70;55.30;;;;;;1558210;75;1102;-56
2022/10/22 09:37:59;;;;;;;;;;;22.80;55.30;;;;;;1559810;75;725;-56
2022/10/22 09:40:00;;;;;;;;;;;22.80;55.30;;;;;;1524266;76;1949;-56
2022/10/22 09:42:02;;;;;;;;;;;22.70;55.30;;;;;;1534274;76;1569;-56
2022/10/22 09:44:04;;;;;;;;;;;22.70;55.40;;;;;;1554911;75;831;-56
2022/10/22 09:46:07;;;;;;;;;;;22.70;55.30;;;;;;1553626;76;1159;-56
2022/10/22 09:48:10;;;;;;;;;;;22.70;55.30;;;;;;1480645;78;734;-56
2022/10/22 09:50:20;;;;;;;;;;;22.70;55.20;;;;;;1490084;78;820;-56
2022/10/22 09:52:23;;;;;;;;;;;22.70;55.20;;;;;;1489711;78;918;-57
2022/10/22 09:54:33;;;;;;;;;;;22.70;55.20;;;;;;1495639;78;1831;-56
2022/10/22 09:56:35;;;;;;;;;;;22.80;55.20;;;;;;1516734;77;1328;-56
2022/10/22 09:58:45;;;;;;;;;;;22.80;55.30;;;;;;1517672;77;767;-56
2022/10/22 10:00:54;;;;;;;;;;;22.80;55.20;;;;;;1519975;77;1917;-56
2022/10/22 10:02:56;;;;;;;;;;;22.70;55.20;;;;;;1520894;77;725;-56
2022/10/22 10:05:00;;;;;;;;;;;22.70;55.30;;;;;;1506396;77;1065;-56
2022/10/22 10:07:02;;;;;;;;;;;22.70;55.30;;;;;;1509269;79;1181;-56
2022/10/22 10:09:15;;;;;;;;;;;22.70;55.30;;;;;;1509200;78;778;-56
2022/10/22 10:11:24;;;;;;;;;;;22.70;55.30;;;;;;1503309;79;1579;-56
2022/10/22 10:13:37;;;;;;;;;;;22.70;55.30;;;;;;1505406;79;1878;-56
2022/10/22 10:15:44;;;;;;;;;;;22.70;55.30;;;;;;1506561;79;1147;-56
2022/10/22 10:18:02;;;;;;;;;;;22.80;55.30;;;;;;1509262;79;1885;-56
2022/10/22 10:20:18;;;;;;;;;;;22.70;55.30;;;;;;1505313;78;2169;-56
2022/10/22 10:22:36;;;;;;;;;;;22.70;55.30;;;;;;1509268;79;630;-56
2022/10/22 10:24:49;;;;;;;;;;;22.70;55.40;;;;;;1508823;79;1611;-56
2022/10/22 10:26:55;;;;;;;;;;;22.70;55.40;;;;;;1509050;78;1117;-56
2022/10/22 10:29:11;;;;;;;;;;;22.70;55.50;;;;;;1509062;77;778;-56
2022/10/22 10:31:21;;;;;;;;;;;22.70;55.50;;;;;;1506192;78;2138;-56
2022/10/22 10:33:30;;;;;;;;;;;22.70;55.40;;;;;;1509435;77;724;-56
2022/10/22 10:35:54;;;;;;;;;;;22.70;55.40;;;;;;1509133;79;1156;-57
2022/10/22 10:38:03;;;;;;;;;;;22.80;55.40;;;;;;1509131;79;1629;-56
2022/10/22 10:40:07;;;;;;;;;;;22.60;55.30;;;;;;1506103;79;1989;-56
2022/10/22 10:42:10;;;;;;;;;;;22.70;55.40;;;;;;1508853;77;1877;-56
2022/10/22 10:44:17;;;;;;;;;;;22.70;55.40;;;;;;1507546;77;782;-56
2022/10/22 10:46:22;;;;;;;;;;;22.70;55.30;;;;;;1508696;78;1088;-57
2022/10/22 10:48:34;;;;;;;;;;;22.80;55.40;;;;;;1507893;78;772;-56
2022/10/22 10:50:40;;;;;;;;;;;22.70;55.40;;;;;;1505862;77;798;-56
2022/10/22 10:52:44;;;;;;;;;;;22.80;55.40;;;;;;1509209;79;1580;-57
2022/10/22 10:54:47;;;;;;;;;;;22.70;55.30;;;;;;1507868;79;1825;-56
2022/10/22 10:56:53;;;;;;;;;;;22.80;55.20;;;;;;1509182;77;1148;-56
2022/10/22 10:59:15;;;;;;;;;;;22.80;55.20;;;;;;1509164;77;2082;-56
2022/10/22 11:01:21;;;;;;;;;;;22.90;55.20;;;;;;1508987;79;1925;-56
2022/10/22 11:03:41;;;;;;;;;;;22.80;55.10;;;;;;1508995;79;754;-56
2022/10/22 11:05:43;;;;;;;;;;;22.80;55.00;;;;;;1507362;78;1171;-56
2022/10/22 11:07:49;;;;;;;;;;;22.90;55.20;;;;;;1509126;79;1598;-56
2022/10/22 11:09:56;;;;;;;;;;;22.90;55.00;;;;;;1509125;77;739;-56
2022/10/22 11:12:01;;;;;;;;;;;22.80;55.00;;;;;;1508705;78;774;-56
2022/10/22 11:14:04;;;;;;;;;;;22.80;54.90;;;;;;1508972;77;740;-56
2022/10/22 11:16:08;;;;;;;;;;;22.90;55.00;;;;;;1508112;79;1132;-57
2022/10/22 11:18:11;;;;;;;;;;;23.00;54.80;;;;;;1508688;77;704;-56
2022/10/22 11:20:15;;;;;;;;;;;22.90;54.70;;;;;;1508496;78;1931;-56
2022/10/22 11:22:24;;;;;;;;;;;23.00;54.70;;;;;;1503308;77;781;-56
2022/10/22 11:24:28;;;;;;;;;;;23.00;54.60;;;;;;1504372;79;778;-56
2022/10/22 11:26:37;;;;;;;;;;;23.00;54.60;;;;;;1503294;77;1155;-56
2022/10/22 11:28:43;;;;;;;;;;;23.00;54.50;;;;;;1500264;77;1653;-56
2022/10/22 11:30:45;;;;;;;;;;;23.00;54.60;;;;;;1508975;79;765;-56
2022/10/22 11:32:49;;;;;;;;;;;23.00;54.60;;;;;;1505727;78;771;-56
2022/10/22 11:34:53;;;;;;;;;;;23.10;54.70;;;;;;1507428;77;1523;-56
2022/10/22 11:36:55;;;;;;;;;;;23.10;54.50;;;;;;1504349;77;1108;-56
2022/10/22 11:38:57;;;;;;;;;;;23.10;54.40;;;;;;1507068;77;831;-56
2022/10/22 11:40:59;;;;;;;;;;;23.10;54.40;;;;;;1508715;77;1942;-56
2022/10/22 11:43:05;;;;;;;;;;;23.10;54.40;;;;;;1509006;79;709;-55
2022/10/22 11:45:08;;;;;;;;;;;23.20;54.20;;;;;;1509079;79;778;-56
2022/10/22 11:47:18;;;;;;;;;;;23.10;54.20;;;;;;1504931;77;1132;-57
2022/10/22 11:49:27;;;;;;;;;;;23.10;54.10;;;;;;1509161;79;1617;-57
2022/10/22 11:51:29;;;;;;;;;;;23.20;54.00;;;;;;1508967;79;804;-57
2022/10/22 11:53:31;;;;;;;;;;;23.20;54.00;;;;;;1509279;77;782;-57
2022/10/22 11:55:47;;;;;;;;;;;23.20;54.00;;;;;;1509025;77;1139;-57
2022/10/22 11:57:49;;;;;;;;;;;23.20;53.90;;;;;;1509147;79;699;-57
2022/10/22 11:59:52;;;;;;;;;;;23.20;53.90;;;;;;1508880;78;685;-56
2022/10/22 12:01:54;;;;;;;;;;;23.20;53.90;;;;;;1504446;79;1947;-57
2022/10/22 12:04:01;;;;;;;;;;;23.20;53.90;;;;;;1508912;79;1377;-57
2022/10/22 12:06:18;;;;;;;;;;;23.20;53.80;;;;;;1509305;77;1554;-56
2022/10/22 12:08:23;;;;;;;;;;;23.30;53.80;;;;;;1509617;76;745;-56
2022/10/22 12:10:26;;;;;;;;;;;23.20;53.80;;;;;;1522526;77;737;-57
2022/10/22 12:12:30;;;;;;;;;;;23.20;53.80;;;;;;1516840;77;725;-57
2022/10/22 12:14:40;;;;;;;;;;;23.20;53.80;;;;;;1508538;76;1896;-57
2022/10/22 12:16:45;;;;;;;;;;;23.20;53.60;;;;;;1523280;76;1652;-56